Odenburg, Louisiana
Current Conditions -  °F | °C
As of 9:55 AM on Friday 19 Dec 2014 (Local Time) from KHZR Reporting Station
Overcast Overcast  
Wind Chill: 55°   Ceiling: 600
Heat Index: 55°   Visibility: 10mi
Dew Point: 53°   Wind: 6mph
Humidity: 96%   Direction: 110°ESE
Pressure: 30.13"   Gusts: NA
Location:  30.9317°N, 91.8606°W
Report Text: KHZR 191555Z AUTO 11005KT 10SM OVC006 13/12 A3013 RMK AO2 T01250118
Loading
Personal Weather Stations






























Interactive Weather Map New forecast layout! Learn more

10-Day Weather Forecast

Advertisements
Track Severe Weather on mobile